sensor_id;sensor_type;location;lat;lon;timestamp;pressure;altitude;pressure_sealevel;temperature;humidity
9009;BME280;62813;51.424;6.762;2023-02-02T00:02:01;101787.50;;;7.30;87.30
9009;BME280;62813;51.424;6.762;2023-02-02T00:04:33;101790.13;;;7.27;86.78
9009;BME280;62813;51.424;6.762;2023-02-02T00:07:02;101787.56;;;7.27;87.00
9009;BME280;62813;51.424;6.762;2023-02-02T00:09:31;101793.53;;;7.29;87.23
9009;BME280;62813;51.424;6.762;2023-02-02T00:11:59;101789.22;;;7.30;86.71
9009;BME280;62813;51.424;6.762;2023-02-02T00:14:26;101793.53;;;7.33;86.10
9009;BME280;62813;51.424;6.762;2023-02-02T00:16:54;101796.94;;;7.35;85.83
9009;BME280;62813;51.424;6.762;2023-02-02T00:19:24;101790.03;;;7.37;86.25
9009;BME280;62813;51.424;6.762;2023-02-02T00:21:52;101790.03;;;7.37;86.92
9009;BME280;62813;51.424;6.762;2023-02-02T00:24:20;101784.88;;;7.35;87.05
9009;BME280;62813;51.424;6.762;2023-02-02T00:26:52;101800.38;;;7.35;87.67
9009;BME280;62813;51.424;6.762;2023-02-02T00:29:22;101792.66;;;7.32;88.70
9009;BME280;62813;51.424;6.762;2023-02-02T00:31:49;101790.13;;;7.27;88.25
9009;BME280;62813;51.424;6.762;2023-02-02T00:34:19;101791.84;;;7.28;88.36
9009;BME280;62813;51.424;6.762;2023-02-02T00:36:47;101795.28;;;7.27;89.04
9009;BME280;62813;51.424;6.762;2023-02-02T00:39:19;101791.00;;;7.26;89.13
9009;BME280;62813;51.424;6.762;2023-02-02T00:41:46;101793.66;;;7.19;90.22
9009;BME280;62813;51.424;6.762;2023-02-02T00:44:13;101797.09;;;7.19;89.98
9009;BME280;62813;51.424;6.762;2023-02-02T00:46:58;101794.53;;;7.19;90.50
9009;BME280;62813;51.424;6.762;2023-02-02T00:49:25;101796.25;;;7.19;90.49
9009;BME280;62813;51.424;6.762;2023-02-02T00:51:51;101803.19;;;7.14;90.98
9009;BME280;62813;51.424;6.762;2023-02-02T00:54:18;101798.03;;;7.11;91.61
9009;BME280;62813;51.424;6.762;2023-02-02T00:56:45;101806.63;;;7.13;nan
9009;BME280;62813;51.424;6.762;2023-02-02T00:59:12;101806.63;;;7.13;91.16
9009;BME280;62813;51.424;6.762;2023-02-02T01:01:41;101806.63;;;7.11;91.21
9009;BME280;62813;51.424;6.762;2023-02-02T01:04:07;101814.38;;;7.11;91.43
9009;BME280;62813;51.424;6.762;2023-02-02T01:06:34;101818.69;;;7.12;91.48
9009;BME280;62813;51.424;6.762;2023-02-02T01:09:02;101810.97;;;7.09;91.56
9009;BME280;62813;51.424;6.762;2023-02-02T01:11:28;101811.88;;;7.05;92.40
9009;BME280;62813;51.424;6.762;2023-02-02T01:13:56;101803.25;;;7.06;91.65
9009;BME280;62813;51.424;6.762;2023-02-02T01:16:23;101811.00;;;7.03;91.85
9009;BME280;62813;51.424;6.762;2023-02-02T01:18:50;101814.50;;;7.00;92.24
9009;BME280;62813;51.424;6.762;2023-02-02T01:21:17;101805.91;;;7.00;92.59
9009;BME280;62813;51.424;6.762;2023-02-02T01:23:44;101804.16;;;7.02;92.45
9009;BME280;62813;51.424;6.762;2023-02-02T01:26:12;101800.69;;;7.05;92.55
9009;BME280;62813;51.424;6.762;2023-02-02T01:28:40;101805.84;;;7.06;92.46
9009;BME280;62813;51.424;6.762;2023-02-02T01:31:09;101802.34;;;7.10;92.40
9009;BME280;62813;51.424;6.762;2023-02-02T01:33:36;101798.03;;;7.11;92.11
9009;BME280;62813;51.424;6.762;2023-02-02T01:36:05;101809.19;;;7.14;92.02
9009;BME280;62813;51.424;6.762;2023-02-02T01:38:33;101805.78;;;7.12;92.34
9009;BME280;62813;51.424;6.762;2023-02-02T01:41:00;101812.63;;;7.15;92.05
9009;BME280;62813;51.424;6.762;2023-02-02T01:43:50;101803.16;;;7.15;92.05
9009;BME280;62813;51.424;6.762;2023-02-02T01:46:32;101818.69;;;7.12;92.36
9009;BME280;62813;51.424;6.762;2023-02-02T01:49:14;101809.22;;;7.11;92.31
9009;BME280;62813;51.424;6.762;2023-02-02T01:51:51;101817.81;;;7.10;92.40
9009;BME280;62813;51.424;6.762;2023-02-02T01:54:33;101827.31;;;7.08;92.23
9009;BME280;62813;51.424;6.762;2023-02-02T01:57:15;101826.44;;;7.09;92.09
9009;BME280;62813;51.424;6.762;2023-02-02T01:59:44;101830.75;;;7.10;92.58
9009;BME280;62813;51.424;6.762;2023-02-02T02:02:13;101823.88;;;7.08;92.21
9009;BME280;62813;51.424;6.762;2023-02-02T02:04:40;101828.16;;;7.10;92.03
9009;BME280;62813;51.424;6.762;2023-02-02T02:07:08;101823.84;;;7.11;91.94
9009;BME280;62813;51.424;6.762;2023-02-02T02:09:35;101821.22;;;7.15;91.84
9009;BME280;62813;51.424;6.762;2023-02-02T02:12:02;101822.06;;;7.19;92.05
9009;BME280;62813;51.424;6.762;2023-02-02T02:14:29;101821.19;;;7.18;91.75
9009;BME280;62813;51.424;6.762;2023-02-02T02:20:29;101812.59;;;7.19;92.21
9009;BME280;62813;51.424;6.762;2023-02-02T02:29:51;101808.28;;;7.20;92.24
9009;BME280;62813;51.424;6.762;2023-02-02T02:32:40;101826.34;;;7.21;92.05
9009;BME280;62813;51.424;6.762;2023-02-02T02:35:29;101816.91;;;7.17;91.92
9009;BME280;62813;51.424;6.762;2023-02-02T02:40:45;101808.34;;;7.14;92.70
9009;BME280;62813;51.424;6.762;2023-02-02T02:43:20;101804.88;;;7.15;92.92
9009;BME280;62813;51.424;6.762;2023-02-02T02:45:49;101803.13;;;7.17;92.74
9009;BME280;62813;51.424;6.762;2023-02-02T02:48:16;101810.84;;;7.18;93.08
9009;BME280;62813;51.424;6.762;2023-02-02T02:50:42;101800.53;;;7.18;93.17
9009;BME280;62813;51.424;6.762;2023-02-02T02:53:15;101812.59;;;7.19;93.07
9009;BME280;62813;51.424;6.762;2023-02-02T02:56:06;101809.19;;;7.14;93.86
9009;BME280;62813;51.424;6.762;2023-02-02T03:01:22;101814.47;;;7.05;93.89
9009;BME280;62813;51.424;6.762;2023-02-02T03:04:00;101822.19;;;7.03;94.23
9009;BME280;62813;51.424;6.762;2023-02-02T03:06:43;101814.44;;;7.07;94.21
9009;BME280;62813;51.424;6.762;2023-02-02T03:09:16;101813.56;;;7.08;94.36
9009;BME280;62813;51.424;6.762;2023-02-02T03:11:45;101810.16;;;7.06;94.25
9009;BME280;62813;51.424;6.762;2023-02-02T03:14:11;101820.44;;;7.07;93.98
9009;BME280;62813;51.424;6.762;2023-02-02T03:16:38;101817.88;;;7.07;94.03
9009;BME280;62813;51.424;6.762;2023-02-02T03:19:06;101821.28;;;7.09;93.85
9009;BME280;62813;51.424;6.762;2023-02-02T03:21:34;101816.13;;;7.12;93.77
9009;BME280;62813;51.424;6.762;2023-02-02T03:24:01;101812.66;;;7.10;93.63
9009;BME280;62813;51.424;6.762;2023-02-02T03:26:28;101799.78;;;7.09;93.79
9009;BME280;62813;51.424;6.762;2023-02-02T03:28:55;101806.66;;;7.10;93.64
9009;BME280;62813;51.424;6.762;2023-02-02T03:31:27;101816.09;;;7.11;93.67
9009;BME280;62813;51.424;6.762;2023-02-02T03:33:55;101814.38;;;7.11;93.55
9009;BME280;62813;51.424;6.762;2023-02-02T03:36:22;101813.53;;;7.12;93.27
9009;BME280;62813;51.424;6.762;2023-02-02T03:38:48;101812.63;;;7.16;92.85
9009;BME280;62813;51.424;6.762;2023-02-02T03:41:15;101812.66;;;7.13;92.84
9009;BME280;62813;51.424;6.762;2023-02-02T03:43:42;101821.22;;;7.15;92.96
9009;BME280;62813;51.424;6.762;2023-02-02T03:46:08;101819.47;;;7.17;92.99
9009;BME280;62813;51.424;6.762;2023-02-02T03:48:36;101812.59;;;7.19;92.54
9009;BME280;62813;51.424;6.762;2023-02-02T03:51:11;101811.75;;;7.17;92.77
9009;BME280;62813;51.424;6.762;2023-02-02T03:53:40;101817.75;;;7.19;92.99
9009;BME280;62813;51.424;6.762;2023-02-02T03:56:09;101817.78;;;7.16;92.73
9009;BME280;62813;51.424;6.762;2023-02-02T03:58:36;101822.09;;;7.14;92.89
9009;BME280;62813;51.424;6.762;2023-02-02T04:01:05;101822.06;;;7.17;92.93
9009;BME280;62813;51.424;6.762;2023-02-02T04:03:32;101831.50;;;7.18;92.56
9009;BME280;62813;51.424;6.762;2023-02-02T04:05:59;101822.94;;;7.16;92.55
9009;BME280;62813;51.424;6.762;2023-02-02T04:08:27;101826.38;;;7.17;92.68
9009;BME280;62813;51.424;6.762;2023-02-02T04:10:56;101827.22;;;7.17;92.57
9009;BME280;62813;51.424;6.762;2023-02-02T04:13:23;101822.94;;;7.19;92.32
9009;BME280;62813;51.424;6.762;2023-02-02T04:15:59;101837.53;;;7.22;91.89
9009;BME280;62813;51.424;6.762;2023-02-02T04:18:27;101832.34;;;7.23;91.87
9009;BME280;62813;51.424;6.762;2023-02-02T04:20:58;101834.91;;;7.23;91.56
9009;BME280;62813;51.424;6.762;2023-02-02T04:23:26;101836.66;;;7.21;91.76
9009;BME280;62813;51.424;6.762;2023-02-02T04:25:53;101834.91;;;7.23;91.94
9009;BME280;62813;51.424;6.762;2023-02-02T04:28:20;101838.38;;;7.22;91.73
9009;BME280;62813;51.424;6.762;2023-02-02T04:30:48;101843.53;;;7.25;91.37
9009;BME280;62813;51.424;6.762;2023-02-02T04:33:15;101845.25;;;7.23;91.91
9009;BME280;62813;51.424;6.762;2023-02-02T04:35:42;101839.22;;;7.23;91.83
9009;BME280;62813;51.424;6.762;2023-02-02T04:38:09;101847.81;;;7.26;91.59
9009;BME280;62813;51.424;6.762;2023-02-02T04:40:44;101845.25;;;7.26;91.98
9009;BME280;62813;51.424;6.762;2023-02-02T04:43:11;101842.66;;;7.25;91.36
9009;BME280;62813;51.424;6.762;2023-02-02T04:45:38;101842.72;;;7.20;91.71
9009;BME280;62813;51.424;6.762;2023-02-02T04:48:05;101843.56;;;7.21;91.26
9009;BME280;62813;51.424;6.762;2023-02-02T04:50:32;101841.84;;;7.21;91.40
9009;BME280;62813;51.424;6.762;2023-02-02T04:52:59;101841.00;;;7.19;91.55
9009;BME280;62813;51.424;6.762;2023-02-02T04:55:25;101839.25;;;7.18;91.36
9009;BME280;62813;51.424;6.762;2023-02-02T04:57:52;101847.00;;;7.21;90.93
9009;BME280;62813;51.424;6.762;2023-02-02T05:00:19;101837.50;;;7.23;90.49
9009;BME280;62813;51.424;6.762;2023-02-02T05:02:46;101837.53;;;7.20;90.76
9009;BME280;62813;51.424;6.762;2023-02-02T05:05:13;101840.97;;;7.21;90.79
9009;BME280;62813;51.424;6.762;2023-02-02T05:07:40;101839.25;;;7.18;91.02
9009;BME280;62813;51.424;6.762;2023-02-02T05:10:08;101841.84;;;7.21;90.49
9009;BME280;62813;51.424;6.762;2023-02-02T05:12:35;101840.06;;;7.26;90.05
9009;BME280;62813;51.424;6.762;2023-02-02T05:15:03;101838.38;;;7.25;90.14
9009;BME280;62813;51.424;6.762;2023-02-02T05:17:31;101829.72;;;7.25;90.00
9009;BME280;62813;51.424;6.762;2023-02-02T05:19:58;101825.44;;;7.27;89.73
9009;BME280;62813;51.424;6.762;2023-02-02T05:22:24;101829.75;;;7.26;89.60
9009;BME280;62813;51.424;6.762;2023-02-02T05:24:51;101828.88;;;7.27;89.78
9009;BME280;62813;51.424;6.762;2023-02-02T05:27:17;101827.13;;;7.28;89.65
9009;BME280;62813;51.424;6.762;2023-02-02T05:29:45;101836.63;;;7.27;89.72
9009;BME280;62813;51.424;6.762;2023-02-02T05:32:12;101827.16;;;7.26;89.42
9009;BME280;62813;51.424;6.762;2023-02-02T05:34:38;101840.91;;;7.28;89.46
9009;BME280;62813;51.424;6.762;2023-02-02T05:37:05;101839.22;;;7.24;89.57
9009;BME280;62813;51.424;6.762;2023-02-02T05:39:31;101841.75;;;7.29;89.45
9009;BME280;62813;51.424;6.762;2023-02-02T05:41:58;101849.50;;;7.29;89.56
9009;BME280;62813;51.424;6.762;2023-02-02T05:44:25;101847.81;;;7.26;89.86
9009;BME280;62813;51.424;6.762;2023-02-02T05:46:52;101847.78;;;7.29;89.27
9009;BME280;62813;51.424;6.762;2023-02-02T05:49:18;101837.44;;;7.29;89.01
9009;BME280;62813;51.424;6.762;2023-02-02T05:51:47;101846.91;;;7.30;89.05
9009;BME280;62813;51.424;6.762;2023-02-02T05:54:14;101846.03;;;7.30;89.29
9009;BME280;62813;51.424;6.762;2023-02-02T05:56:50;101853.78;;;7.30;89.49
9009;BME280;62813;51.424;6.762;2023-02-02T05:59:18;101852.94;;;7.29;89.63
9009;BME280;62813;51.424;6.762;2023-02-02T06:01:45;101852.97;;;7.28;89.62
9009;BME280;62813;51.424;6.762;2023-02-02T06:04:13;101854.66;;;7.30;89.30
9009;BME280;62813;51.424;6.762;2023-02-02T06:06:40;101870.13;;;7.34;88.58
9009;BME280;62813;51.424;6.762;2023-02-02T06:09:07;101870.06;;;7.38;88.61
9009;BME280;62813;51.424;6.762;2023-02-02T06:11:34;101856.31;;;7.36;88.67
9009;BME280;62813;51.424;6.762;2023-02-02T06:14:01;101856.28;;;7.38;88.53
9009;BME280;62813;51.424;6.762;2023-02-02T06:16:28;101855.41;;;7.39;88.19
9009;BME280;62813;51.424;6.762;2023-02-02T06:18:54;101852.84;;;7.39;88.52
9009;BME280;62813;51.424;6.762;2023-02-02T06:21:21;101864.03;;;7.38;88.33
9009;BME280;62813;51.424;6.762;2023-02-02T06:23:50;101860.59;;;7.40;88.00
9009;BME280;62813;51.424;6.762;2023-02-02T06:26:17;101861.44;;;7.41;88.06
9009;BME280;62813;51.424;6.762;2023-02-02T06:28:48;101856.25;;;7.42;87.92
9009;BME280;62813;51.424;6.762;2023-02-02T06:31:15;101868.34;;;7.40;87.71
9009;BME280;62813;51.424;6.762;2023-02-02T06:33:52;101883.84;;;7.40;88.00
9009;BME280;62813;51.424;6.762;2023-02-02T06:36:19;101876.94;;;7.39;87.82
9009;BME280;62813;51.424;6.762;2023-02-02T06:38:49;101870.06;;;7.38;88.00
9009;BME280;62813;51.424;6.762;2023-02-02T06:41:17;101881.25;;;7.42;87.92
9009;BME280;62813;51.424;6.762;2023-02-02T06:43:44;101883.00;;;7.40;88.08
9009;BME280;62813;51.424;6.762;2023-02-02T06:46:10;101885.56;;;7.38;88.18
9009;BME280;62813;51.424;6.762;2023-02-02T06:48:37;101884.72;;;7.38;88.38
9009;BME280;62813;51.424;6.762;2023-02-02T06:51:04;101886.41;;;7.39;88.27
9009;BME280;62813;51.424;6.762;2023-02-02T06:53:31;101889.00;;;7.39;88.22
9009;BME280;62813;51.424;6.762;2023-02-02T06:56:00;101888.16;;;7.40;88.38
9009;BME280;62813;51.424;6.762;2023-02-02T06:58:27;101892.44;;;7.42;88.03
9009;BME280;62813;51.424;6.762;2023-02-02T07:00:54;101902.78;;;7.41;87.84
9009;BME280;62813;51.424;6.762;2023-02-02T07:03:21;101898.44;;;7.43;88.10
9009;BME280;62813;51.424;6.762;2023-02-02T07:05:48;101892.44;;;7.42;88.67
9009;BME280;62813;51.424;6.762;2023-02-02T07:08:14;101894.13;;;7.43;88.28
9009;BME280;62813;51.424;6.762;2023-02-02T07:10:41;101896.75;;;7.42;88.67
9009;BME280;62813;51.424;6.762;2023-02-02T07:13:29;101895.84;;;7.44;88.88
9009;BME280;62813;51.424;6.762;2023-02-02T07:15:56;101890.66;;;7.46;88.94
9009;BME280;62813;51.424;6.762;2023-02-02T07:18:23;101898.41;;;7.46;88.86
9009;BME280;62813;51.424;6.762;2023-02-02T07:20:50;101882.06;;;7.45;88.86
9009;BME280;62813;51.424;6.762;2023-02-02T07:23:16;101894.97;;;7.45;89.45
9009;BME280;62813;51.424;6.762;2023-02-02T07:25:43;101900.16;;;7.44;89.61
9009;BME280;62813;51.424;6.762;2023-02-02T07:28:10;101903.63;;;7.41;89.95
9009;BME280;62813;51.424;6.762;2023-02-02T07:30:36;101907.06;;;7.42;89.27
9009;BME280;62813;51.424;6.762;2023-02-02T07:33:03;101903.63;;;7.41;89.38
9009;BME280;62813;51.424;6.762;2023-02-02T07:35:29;101911.38;;;7.41;89.53
9009;BME280;62813;51.424;6.762;2023-02-02T07:37:56;101907.06;;;7.42;89.84
9009;BME280;62813;51.424;6.762;2023-02-02T07:40:23;101910.53;;;7.41;89.79
9009;BME280;62813;51.424;6.762;2023-02-02T07:42:49;101902.72;;;7.45;89.63
9009;BME280;62813;51.424;6.762;2023-02-02T07:45:16;101912.19;;;7.48;89.51
9009;BME280;62813;51.424;6.762;2023-02-02T07:47:56;101913.03;;;7.48;89.51
9009;BME280;62813;51.424;6.762;2023-02-02T07:50:23;101916.50;;;7.47;89.88
9009;BME280;62813;51.424;6.762;2023-02-02T07:52:51;101921.63;;;7.50;89.73
9009;BME280;62813;51.424;6.762;2023-02-02T07:55:18;101908.69;;;7.52;89.92
9009;BME280;62813;51.424;6.762;2023-02-02T07:57:45;101916.44;;;7.52;90.02
9009;BME280;62813;51.424;6.762;2023-02-02T08:00:12;101920.75;;;7.50;89.87
9009;BME280;62813;51.424;6.762;2023-02-02T08:02:39;101916.50;;;7.47;90.33
9009;BME280;62813;51.424;6.762;2023-02-02T08:05:05;101925.13;;;7.43;90.24
9009;BME280;62813;51.424;6.762;2023-02-02T08:07:33;101929.44;;;7.43;90.60
9009;BME280;62813;51.424;6.762;2023-02-02T08:10:00;101932.00;;;7.47;90.72
9009;BME280;62813;51.424;6.762;2023-02-02T08:12:27;101936.31;;;7.44;90.66
9009;BME280;62813;51.424;6.762;2023-02-02T08:14:54;101937.19;;;7.43;91.12
9009;BME280;62813;51.424;6.762;2023-02-02T08:17:20;101935.44;;;7.45;90.94
9009;BME280;62813;51.424;6.762;2023-02-02T08:19:49;101932.84;;;7.45;91.31
9009;BME280;62813;51.424;6.762;2023-02-02T08:22:16;101938.91;;;7.44;91.63
9009;BME280;62813;51.424;6.762;2023-02-02T08:24:45;101943.22;;;7.43;91.46
9009;BME280;62813;51.424;6.762;2023-02-02T08:27:12;101948.34;;;7.48;91.40
9009;BME280;62813;51.424;6.762;2023-02-02T08:29:38;101952.66;;;7.44;91.95
9009;BME280;62813;51.424;6.762;2023-02-02T08:32:05;101950.91;;;7.46;91.74
9009;BME280;62813;51.424;6.762;2023-02-02T08:34:32;101954.38;;;7.48;91.81
9009;BME280;62813;51.424;6.762;2023-02-02T08:37:02;101954.31;;;7.56;92.73
9009;BME280;62813;51.424;6.762;2023-02-02T08:39:29;101958.56;;;7.62;92.50
9009;BME280;62813;51.424;6.762;2023-02-02T08:42:00;101960.22;;;7.66;92.30
9009;BME280;62813;51.424;6.762;2023-02-02T08:44:32;101956.72;;;7.71;92.57
9009;BME280;62813;51.424;6.762;2023-02-02T08:47:04;101963.56;;;7.78;92.02
9009;BME280;62813;51.424;6.762;2023-02-02T08:49:36;101967.06;;;7.71;91.47
9009;BME280;62813;51.424;6.762;2023-02-02T08:52:08;101966.19;;;7.75;91.83
9009;BME280;62813;51.424;6.762;2023-02-02T08:54:40;101975.59;;;7.79;92.06
9009;BME280;62813;51.424;6.762;2023-02-02T08:57:12;101977.28;;;7.83;91.95
9009;BME280;62813;51.424;6.762;2023-02-02T08:59:44;101974.72;;;7.82;92.28
9009;BME280;62813;51.424;6.762;2023-02-02T09:02:16;101980.66;;;7.89;91.91
9009;BME280;62813;51.424;6.762;2023-02-02T09:04:44;101975.50;;;7.89;92.41
9009;BME280;62813;51.424;6.762;2023-02-02T09:07:12;101982.47;;;7.83;92.64
9009;BME280;62813;51.424;6.762;2023-02-02T09:09:38;101983.28;;;7.87;92.43
9009;BME280;62813;51.424;6.762;2023-02-02T09:12:05;101985.84;;;7.89;92.26
9009;BME280;62813;51.424;6.762;2023-02-02T09:14:31;101992.81;;;7.80;92.57
9009;BME280;62813;51.424;6.762;2023-02-02T09:16:58;102005.72;;;7.85;92.34
9009;BME280;62813;51.424;6.762;2023-02-02T09:19:25;102009.13;;;7.87;92.45
9009;BME280;62813;51.424;6.762;2023-02-02T09:21:51;102014.28;;;7.87;92.39
9009;BME280;62813;51.424;6.762;2023-02-02T09:24:18;102006.56;;;7.85;92.55
9009;BME280;62813;51.424;6.762;2023-02-02T09:26:44;102009.97;;;7.88;92.62
9009;BME280;62813;51.424;6.762;2023-02-02T09:29:13;102019.53;;;7.82;91.99
9009;BME280;62813;51.424;6.762;2023-02-02T09:31:46;102027.28;;;7.82;92.79
9009;BME280;62813;51.424;6.762;2023-02-02T09:34:18;102024.69;;;7.81;92.29
9009;BME280;62813;51.424;6.762;2023-02-02T09:36:45;102034.19;;;7.82;92.36
9009;BME280;62813;51.424;6.762;2023-02-02T09:39:12;102043.59;;;7.88;92.48
9009;BME280;62813;51.424;6.762;2023-02-02T09:41:46;102049.59;;;7.93;91.84
9009;BME280;62813;51.424;6.762;2023-02-02T09:55:47;102077.13;;;7.97;91.15
9009;BME280;62813;51.424;6.762;2023-02-02T09:58:21;102082.25;;;8.00;90.61
9009;BME280;62813;51.424;6.762;2023-02-02T10:01:01;102090.88;;;8.00;90.61
9009;BME280;62813;51.424;6.762;2023-02-02T10:11:49;102078.09;;;7.85;89.56
9009;BME280;62813;51.424;6.762;2023-02-02T10:17:06;102088.47;;;7.82;89.72
9009;BME280;62813;51.424;6.762;2023-02-02T10:19:35;102091.00;;;7.86;89.43
9009;BME280;62813;51.424;6.762;2023-02-02T10:22:03;102090.16;;;7.84;88.95
9009;BME280;62813;51.424;6.762;2023-02-02T10:24:32;102099.66;;;7.84;89.32
9009;BME280;62813;51.424;6.762;2023-02-02T10:27:02;102094.47;;;7.81;89.17
9009;BME280;62813;51.424;6.762;2023-02-02T10:29:54;102103.97;;;7.83;89.13
9009;BME280;62813;51.424;6.762;2023-02-02T10:32:26;102098.75;;;7.86;89.24
9009;BME280;62813;51.424;6.762;2023-02-02T10:37:47;102096.94;;;7.98;88.36
9009;BME280;62813;51.424;6.762;2023-02-02T10:40:52;102098.63;;;8.02;88.54
9009;BME280;62813;51.424;6.762;2023-02-02T10:49:14;102102.94;;;8.01;88.06
9009;BME280;62813;51.424;6.762;2023-02-02T10:51:51;102108.09;;;8.01;87.81
9009;BME280;62813;51.424;6.762;2023-02-02T10:54:27;102109.81;;;8.02;87.77
9009;BME280;62813;51.424;6.762;2023-02-02T10:56:57;102108.09;;;8.03;87.34
9009;BME280;62813;51.424;6.762;2023-02-02T10:59:31;102104.69;;;7.99;87.50
9009;BME280;62813;51.424;6.762;2023-02-02T11:01:58;102109.81;;;8.02;87.63
9009;BME280;62813;51.424;6.762;2023-02-02T11:04:44;102116.72;;;8.02;87.93
9009;BME280;62813;51.424;6.762;2023-02-02T11:07:29;102118.47;;;8.00;87.67
9009;BME280;62813;51.424;6.762;2023-02-02T11:09:56;102121.06;;;7.98;87.36
9009;BME280;62813;51.424;6.762;2023-02-02T11:12:44;102133.13;;;7.99;86.96
9009;BME280;62813;51.424;6.762;2023-02-02T11:17:50;102130.50;;;8.01;86.97
9009;BME280;62813;51.424;6.762;2023-02-02T11:20:32;102132.22;;;8.02;87.17
9009;BME280;62813;51.424;6.762;2023-02-02T11:23:01;102131.38;;;8.00;87.17
9009;BME280;62813;51.424;6.762;2023-02-02T11:25:37;102137.41;;;8.02;87.32
9009;BME280;62813;51.424;6.762;2023-02-02T11:28:13;102131.34;;;8.03;87.26
9009;BME280;62813;51.424;6.762;2023-02-02T11:30:46;102133.06;;;8.05;87.02
9009;BME280;62813;51.424;6.762;2023-02-02T11:33:20;102131.31;;;8.09;87.20
9009;BME280;62813;51.424;6.762;2023-02-02T11:36:16;102127.88;;;8.10;87.12
9009;BME280;62813;51.424;6.762;2023-02-02T11:38:43;102121.00;;;8.06;87.74
9009;BME280;62813;51.424;6.762;2023-02-02T11:41:10;102120.13;;;8.07;88.03
9009;BME280;62813;51.424;6.762;2023-02-02T11:43:47;102108.97;;;8.02;87.67
9009;BME280;62813;51.424;6.762;2023-02-02T11:48:54;102119.25;;;8.08;87.42
9009;BME280;62813;51.424;6.762;2023-02-02T11:51:23;102112.34;;;8.10;87.61
9009;BME280;62813;51.424;6.762;2023-02-02T11:56:41;102113.16;;;8.13;87.58
9009;BME280;62813;51.424;6.762;2023-02-02T12:04:47;102110.63;;;8.10;87.72
9009;BME280;62813;51.424;6.762;2023-02-02T12:07:26;102114.03;;;8.12;87.23
9009;BME280;62813;51.424;6.762;2023-02-02T12:09:58;102105.47;;;8.10;87.39
9009;BME280;62813;51.424;6.762;2023-02-02T12:17:46;102115.81;;;8.10;87.61
9009;BME280;62813;51.424;6.762;2023-02-02T12:23:18;102114.91;;;8.13;87.58
9009;BME280;62813;51.424;6.762;2023-02-02T12:32:06;102116.63;;;8.14;87.40
9009;BME280;62813;51.424;6.762;2023-02-02T12:35:00;102117.50;;;8.11;87.24
9009;BME280;62813;51.424;6.762;2023-02-02T12:51:44;102119.19;;;8.14;87.62
9009;BME280;62813;51.424;6.762;2023-02-02T12:54:41;102111.44;;;8.17;87.97
9009;BME280;62813;51.424;6.762;2023-02-02T13:03:04;102110.59;;;8.13;87.66
9009;BME280;62813;51.424;6.762;2023-02-02T13:08:46;102104.59;;;8.11;87.88
9009;BME280;62813;51.424;6.762;2023-02-02T13:14:23;102114.13;;;8.03;88.37
9009;BME280;62813;51.424;6.762;2023-02-02T13:16:58;102116.72;;;8.02;88.75
9009;BME280;62813;51.424;6.762;2023-02-02T13:19:42;102117.56;;;8.05;88.50
9009;BME280;62813;51.424;6.762;2023-02-02T13:22:21;102117.59;;;8.04;88.89
9009;BME280;62813;51.424;6.762;2023-02-02T13:24:53;102123.59;;;8.03;88.88
9009;BME280;62813;51.424;6.762;2023-02-02T13:27:21;102117.59;;;8.01;88.73
9009;BME280;62813;51.424;6.762;2023-02-02T13:32:35;102127.06;;;8.02;89.18
9009;BME280;62813;51.424;6.762;2023-02-02T13:35:05;102124.50;;;8.00;89.23
9009;BME280;62813;51.424;6.762;2023-02-02T13:37:41;102132.22;;;8.02;89.02
9009;BME280;62813;51.424;6.762;2023-02-02T13:40:40;102131.38;;;8.01;89.73
9009;BME280;62813;51.424;6.762;2023-02-02T13:45:45;102146.00;;;8.02;90.48
9009;BME280;62813;51.424;6.762;2023-02-02T14:02:46;102136.59;;;7.94;92.67
9009;BME280;62813;51.424;6.762;2023-02-02T14:07:47;102150.38;;;7.99;92.50
9009;BME280;62813;51.424;6.762;2023-02-02T14:10:25;102143.47;;;7.98;92.38
9009;BME280;62813;51.424;6.762;2023-02-02T14:12:54;102134.84;;;7.99;92.50
9009;BME280;62813;51.424;6.762;2023-02-02T14:15:42;102138.28;;;8.01;93.04
9009;BME280;62813;51.424;6.762;2023-02-02T14:18:09;102135.72;;;7.99;92.81
9009;BME280;62813;51.424;6.762;2023-02-02T14:20:44;102136.59;;;7.95;93.07
9009;BME280;62813;51.424;6.762;2023-02-02T14:26:19;102142.63;;;7.96;93.41
9009;BME280;62813;51.424;6.762;2023-02-02T14:34:36;102151.25;;;7.96;93.72
9009;BME280;62813;51.424;6.762;2023-02-02T14:37:10;102150.41;;;7.93;93.74
9009;BME280;62813;51.424;6.762;2023-02-02T14:42:49;102152.97;;;7.96;93.80
9009;BME280;62813;51.424;6.762;2023-02-02T14:45:42;102149.53;;;7.94;93.75
9009;BME280;62813;51.424;6.762;2023-02-02T14:53:29;102160.72;;;7.96;93.24
9009;BME280;62813;51.424;6.762;2023-02-02T14:55:58;102159.88;;;7.97;93.33
9009;BME280;62813;51.424;6.762;2023-02-02T15:06:13;102177.06;;;8.01;93.62
9009;BME280;62813;51.424;6.762;2023-02-02T15:08:40;102178.78;;;8.02;93.75
9009;BME280;62813;51.424;6.762;2023-02-02T15:11:07;102181.28;;;8.09;93.63
9009;BME280;62813;51.424;6.762;2023-02-02T15:13:56;102187.34;;;8.10;93.53
9009;BME280;62813;51.424;6.762;2023-02-02T15:16:28;102185.63;;;8.10;93.41
9009;BME280;62813;51.424;6.762;2023-02-02T15:19:04;102182.16;;;8.11;93.59
9009;BME280;62813;51.424;6.762;2023-02-02T15:21:33;102182.19;;;8.10;93.85
9009;BME280;62813;51.424;6.762;2023-02-02T15:24:03;102183.03;;;8.10;93.60
9009;BME280;62813;51.424;6.762;2023-02-02T15:26:39;102189.06;;;8.11;93.37
9009;BME280;62813;51.424;6.762;2023-02-02T15:29:48;102195.13;;;8.10;93.82
9009;BME280;62813;51.424;6.762;2023-02-02T15:32:21;102194.25;;;8.08;93.59
9009;BME280;62813;51.424;6.762;2023-02-02T15:34:57;102192.56;;;8.04;93.48
9009;BME280;62813;51.424;6.762;2023-02-02T15:37:34;102202.03;;;8.02;93.76
9009;BME280;62813;51.424;6.762;2023-02-02T15:40:14;102201.25;;;7.97;93.90
9009;BME280;62813;51.424;6.762;2023-02-02T15:42:45;102208.97;;;7.98;94.21
9009;BME280;62813;51.424;6.762;2023-02-02T15:45:54;102213.31;;;7.96;94.30
9009;BME280;62813;51.424;6.762;2023-02-02T15:48:28;102216.75;;;7.94;94.34
9009;BME280;62813;51.424;6.762;2023-02-02T15:50:58;102222.81;;;7.88;94.93
9009;BME280;62813;51.424;6.762;2023-02-02T15:53:28;102221.09;;;7.87;95.04
9009;BME280;62813;51.424;6.762;2023-02-02T15:55:57;102217.72;;;7.79;95.32
9009;BME280;62813;51.424;6.762;2023-02-02T15:58:37;102220.28;;;7.79;95.46